Time,TemperatureF,DewpointF,PressureIn,WindDirection,WindDirectionDegrees,WindSpeedMPH,WindSpeedGustMPH,Humidity,HourlyPrecipIn,Conditions,Clouds,dailyrainin,SoftwareType,DateUTC
2013-01-22 00:01:00,25.9,2.6,30.04,WSW,237,5.8,7.6,36,0.00,,CLR,0.00,VWS V14.01,2013-01-22 07:01:00,
2013-01-22 00:06:00,24.8,2.2,30.04,SW,219,4.0,7.6,37,0.00,,CLR,0.00,VWS V14.01,2013-01-22 07:06:00,
2013-01-22 00:11:00,27.0,3.0,30.04,SSW,213,4.0,7.6,35,0.00,,CLR,0.00,VWS V14.01,2013-01-22 07:11:00,
2013-01-22 00:16:00,24.8,1.6,30.04,SW,223,5.4,7.6,36,0.00,,CLR,0.00,VWS V14.01,2013-01-22 07:16:00,
2013-01-22 00:21:00,25.2,2.0,30.04,SW,223,7.2,7.6,36,0.00,,CLR,0.00,VWS V14.01,2013-01-22 07:21:00,
2013-01-22 00:26:00,25.5,2.3,30.04,SW,227,5.8,7.6,36,0.00,,CLR,0.00,VWS V14.01,2013-01-22 07:26:00,
2013-01-22 00:31:00,26.1,2.8,30.04,SW,236,6.3,8.1,36,0.00,,CLR,0.00,VWS V14.01,2013-01-22 07:31:00,
2013-01-22 00:36:00,25.7,2.5,30.04,SW,216,8.3,8.3,36,0.00,,CLR,0.00,VWS V14.01,2013-01-22 07:36:00,
2013-01-22 00:41:00,25.7,2.5,30.04,SW,217,5.4,8.7,36,0.00,,CLR,0.00,VWS V14.01,2013-01-22 07:41:00,
2013-01-22 00:46:00,27.9,3.8,30.04,SSW,197,7.6,8.7,35,0.00,,CLR,0.00,VWS V14.01,2013-01-22 07:46:00,
2013-01-22 00:51:00,26.2,2.3,30.04,SW,226,6.3,8.7,35,0.00,,CLR,0.00,VWS V14.01,2013-01-22 07:51:00,
2013-01-22 00:56:00,25.7,1.9,30.04,SW,214,5.4,8.7,35,0.00,,CLR,0.00,VWS V14.01,2013-01-22 07:56:00,
2013-01-22 01:01:00,28.4,4.2,30.04,South,176,6.3,8.7,35,0.00,,CLR,0.00,VWS V14.01,2013-01-22 08:01:00,
2013-01-22 01:06:00,27.7,3.6,30.04,SSW,194,6.3,8.3,35,0.00,,CLR,0.00,VWS V14.01,2013-01-22 08:06:00,
2013-01-22 01:11:00,25.7,1.9,30.04,SSW,206,5.4,8.3,35,0.00,,CLR,0.00,VWS V14.01,2013-01-22 08:11:00,
2013-01-22 01:16:00,25.9,2.0,30.04,SSW,198,7.6,8.3,35,0.00,,CLR,0.00,VWS V14.01,2013-01-22 08:16:00,
2013-01-22 01:21:00,24.6,1.5,30.04,SSW,212,7.6,8.3,36,0.00,,CLR,0.00,VWS V14.01,2013-01-22 08:21:00,
2013-01-22 01:26:00,24.6,1.5,30.04,SW,227,7.6,8.3,36,0.00,,CLR,0.00,VWS V14.01,2013-01-22 08:26:00,
2013-01-22 01:31:00,23.9,0.8,30.04,WSW,239,7.6,8.3,36,0.00,,CLR,0.00,VWS V14.01,2013-01-22 08:31:00,
2013-01-22 01:36:00,24.3,1.2,30.04,SW,228,7.2,8.1,36,0.00,,CLR,0.00,VWS V14.01,2013-01-22 08:36:00,
2013-01-22 01:41:00,25.3,2.1,30.04,SW,230,8.7,10.1,36,0.00,,CLR,0.00,VWS V14.01,2013-01-22 08:41:00,
2013-01-22 01:46:00,26.2,2.3,30.04,SSW,205,8.1,10.1,35,0.00,,CLR,0.00,VWS V14.01,2013-01-22 08:46:00,
2013-01-22 01:51:00,27.3,3.3,30.04,SW,222,10.1,10.1,35,0.00,,CLR,0.00,VWS V14.01,2013-01-22 08:51:00,
2013-01-22 01:56:00,27.5,3.5,30.04,SW,216,7.2,10.1,35,0.00,,CLR,0.00,VWS V14.01,2013-01-22 08:56:00,
2013-01-22 02:01:00,27.1,2.5,30.04,SW,214,5.4,10.1,34,0.00,,CLR,0.00,VWS V14.01,2013-01-22 09:01:00,
2013-01-22 02:06:00,27.7,3.0,30.04,SSW,196,5.8,8.3,34,0.00,,CLR,0.00,VWS V14.01,2013-01-22 09:06:00,
2013-01-22 02:11:00,27.5,2.8,30.04,SSW,209,7.6,8.3,34,0.00,,CLR,0.00,VWS V14.01,2013-01-22 09:11:00,
2013-01-22 02:16:00,28.2,3.5,30.04,SW,219,7.6,8.7,34,0.00,,CLR,0.00,VWS V14.01,2013-01-22 09:16:00,
2013-01-22 02:21:00,27.5,2.8,30.04,SSW,198,5.4,8.7,34,0.00,,CLR,0.00,VWS V14.01,2013-01-22 09:21:00,
2013-01-22 02:26:00,30.0,4.4,30.04,South,181,8.3,8.7,33,0.00,,CLR,0.00,VWS V14.01,2013-01-22 09:26:00,
2013-01-22 02:31:00,29.3,4.4,30.04,SSW,202,7.2,10.1,34,0.00,,CLR,0.00,VWS V14.01,2013-01-22 09:31:00,
2013-01-22 02:36:00,28.8,3.3,30.04,SSW,207,6.3,8.3,33,0.00,,CLR,0.00,VWS V14.01,2013-01-22 09:36:00,
2013-01-22 02:41:00,28.9,3.5,30.04,SSW,203,8.3,10.1,33,0.00,,CLR,0.00,VWS V14.01,2013-01-22 09:41:00,
2013-01-22 02:46:00,29.5,3.9,30.04,SW,225,8.1,10.1,33,0.00,,CLR,0.00,VWS V14.01,2013-01-22 09:46:00,
2013-01-22 02:51:00,30.0,4.4,30.04,SW,222,8.1,10.1,33,0.00,,CLR,0.00,VWS V14.01,2013-01-22 09:51:00,
2013-01-22 02:56:00,28.9,3.5,30.04,SW,220,7.2,10.1,33,0.00,,CLR,0.00,VWS V14.01,2013-01-22 09:56:00,
2013-01-22 03:01:00,30.7,4.4,30.04,WSW,237,6.3,10.1,32,0.00,,CLR,0.00,VWS V14.01,2013-01-22 10:01:00,
2013-01-22 03:06:00,30.2,4.6,30.04,SW,229,8.1,8.3,33,0.00,,CLR,0.00,VWS V14.01,2013-01-22 10:06:00,
2013-01-22 03:11:00,28.2,2.8,30.04,WSW,245,6.7,8.3,33,0.00,,CLR,0.00,VWS V14.01,2013-01-22 10:11:00,
2013-01-22 03:16:00,27.0,1.7,30.04,NW,315,3.1,8.3,33,0.00,,CLR,0.00,VWS V14.01,2013-01-22 10:16:00,
2013-01-22 03:21:00,25.7,1.2,30.07,WSW,243,5.8,8.3,34,0.00,,CLR,0.00,VWS V14.01,2013-01-22 10:21:00,
2013-01-22 03:26:00,27.1,1.9,30.07,South,185,4.0,8.3,33,0.00,,CLR,0.00,VWS V14.01,2013-01-22 10:26:00,
2013-01-22 03:31:00,29.1,3.0,30.07,SSW,211,5.4,8.3,32,0.00,,CLR,0.00,VWS V14.01,2013-01-22 10:31:00,
2013-01-22 03:36:00,27.7,2.3,30.07,SW,224,7.2,8.3,33,0.00,,CLR,0.00,VWS V14.01,2013-01-22 10:36:00,
2013-01-22 03:41:00,24.6,0.9,30.07,WSW,254,6.3,8.3,35,0.00,,CLR,0.00,VWS V14.01,2013-01-22 10:41:00,
2013-01-22 03:46:00,22.3,-0.6,30.07,WSW,237,7.2,8.3,36,0.00,,CLR,0.00,VWS V14.01,2013-01-22 10:46:00,
2013-01-22 03:51:00,22.1,-0.8,30.04,SW,230,8.1,8.3,36,0.00,,CLR,0.00,VWS V14.01,2013-01-22 10:51:00,
2013-01-22 03:56:00,23.7,0.7,30.04,SW,232,7.6,8.3,36,0.00,,CLR,0.00,VWS V14.01,2013-01-22 10:56:00,
2013-01-22 04:01:00,23.2,-0.4,30.04,SW,222,6.3,8.3,35,0.00,,CLR,0.00,VWS V14.01,2013-01-22 11:01:00,
2013-01-22 04:06:00,23.9,0.2,30.04,SW,224,8.3,8.3,35,0.00,,CLR,0.00,VWS V14.01,2013-01-22 11:06:00,
2013-01-22 04:11:00,24.4,1.3,30.04,WSW,248,6.3,8.7,36,0.00,,CLR,0.00,VWS V14.01,2013-01-22 11:11:00,
2013-01-22 04:16:00,21.9,-0.3,30.04,WSW,246,8.1,8.7,37,0.00,,CLR,0.00,VWS V14.01,2013-01-22 11:16:00,
2013-01-22 04:21:00,21.2,-1.0,30.04,WSW,240,6.3,8.7,37,0.00,,CLR,0.00,VWS V14.01,2013-01-22 11:21:00,
2013-01-22 04:26:00,21.7,-0.5,30.04,SW,221,6.7,8.7,37,0.00,,CLR,0.00,VWS V14.01,2013-01-22 11:26:00,
2013-01-22 04:31:00,22.6,0.3,30.04,WSW,245,8.3,8.7,37,0.00,,CLR,0.00,VWS V14.01,2013-01-22 11:31:00,
2013-01-22 04:36:00,21.7,-0.5,30.04,West,262,7.2,10.1,37,0.00,,CLR,0.00,VWS V14.01,2013-01-22 11:36:00,
2013-01-22 04:42:00,21.9,-0.3,30.04,SW,227,7.6,10.1,37,0.00,,CLR,0.00,VWS V14.01,2013-01-22 11:42:00,
2013-01-22 04:47:00,23.9,0.8,30.04,SSW,204,8.1,10.1,36,0.00,,CLR,0.00,VWS V14.01,2013-01-22 11:47:00,
2013-01-22 04:52:00,23.0,0.6,30.04,SW,234,6.3,10.1,37,0.00,,CLR,0.00,VWS V14.01,2013-01-22 11:52:00,
2013-01-22 04:57:00,22.5,0.1,30.04,WSW,250,6.3,10.5,37,0.00,,CLR,0.00,VWS V14.01,2013-01-22 11:57:00,
2013-01-22 05:02:00,22.3,-0.6,30.04,WSW,250,6.3,10.5,36,0.00,,CLR,0.00,VWS V14.01,2013-01-22 12:02:00,
2013-01-22 05:07:00,23.5,0.5,30.04,SW,231,7.6,8.3,36,0.00,,CLR,0.00,VWS V14.01,2013-01-22 12:07:00,
2013-01-22 05:12:00,23.2,0.2,30.04,SW,231,5.4,8.3,36,0.00,,CLR,0.00,VWS V14.01,2013-01-22 12:12:00,
2013-01-22 05:17:00,23.9,0.8,30.04,SW,227,8.3,8.7,36,0.00,,CLR,0.00,VWS V14.01,2013-01-22 12:17:00,
2013-01-22 05:22:00,25.3,1.5,30.04,SW,215,7.6,8.7,35,0.00,,CLR,0.00,VWS V14.01,2013-01-22 12:22:00,
2013-01-22 05:27:00,26.4,2.5,30.04,South,178,5.8,8.7,35,0.00,,CLR,0.00,VWS V14.01,2013-01-22 12:27:00,
2013-01-22 05:32:00,24.8,1.0,30.04,SW,227,6.3,6.7,35,0.00,,CLR,0.00,VWS V14.01,2013-01-22 12:32:00,
2013-01-22 05:37:00,23.2,-0.4,30.04,SW,224,7.2,7.6,35,0.00,,CLR,0.00,VWS V14.01,2013-01-22 12:37:00,
2013-01-22 05:42:00,24.3,0.6,30.04,SSW,205,5.4,7.6,35,0.00,,CLR,0.00,VWS V14.01,2013-01-22 12:42:00,
2013-01-22 05:47:00,25.3,1.5,30.07,SSW,192,4.0,7.6,35,0.00,,CLR,0.00,VWS V14.01,2013-01-22 12:47:00,
2013-01-22 05:52:00,24.4,0.7,30.07,SSW,193,4.9,7.6,35,0.00,,CLR,0.00,VWS V14.01,2013-01-22 12:52:00,
2013-01-22 05:57:00,23.9,0.2,30.07,SSW,198,6.3,7.6,35,0.00,,CLR,0.00,VWS V14.01,2013-01-22 12:57:00,
2013-01-22 06:02:00,22.6,-0.3,30.07,SW,226,8.3,8.3,36,0.00,,CLR,0.00,VWS V14.01,2013-01-22 13:02:00,
2013-01-22 06:07:00,23.0,0.0,30.07,SW,225,6.3,8.3,36,0.00,,CLR,0.00,VWS V14.01,2013-01-22 13:07:00,
2013-01-22 06:12:00,22.3,-0.6,30.07,WSW,242,7.6,8.3,36,0.00,,CLR,0.00,VWS V14.01,2013-01-22 13:12:00,
2013-01-22 06:17:00,21.6,-1.2,30.04,WSW,241,6.7,8.3,36,0.00,,CLR,0.00,VWS V14.01,2013-01-22 13:17:00,
2013-01-22 06:22:00,22.3,-0.6,30.04,WSW,245,4.9,8.7,36,0.00,,CLR,0.00,VWS V14.01,2013-01-22 13:22:00,
2013-01-22 06:27:00,23.4,-0.2,30.04,SW,219,5.8,8.7,35,0.00,,CLR,0.00,VWS V14.01,2013-01-22 13:27:00,
2013-01-22 06:32:00,23.2,-0.4,30.04,SW,234,7.6,7.6,35,0.00,,CLR,0.00,VWS V14.01,2013-01-22 13:32:00,
2013-01-22 06:37:00,23.5,-0.1,30.04,SW,216,8.3,8.7,35,0.00,,CLR,0.00,VWS V14.01,2013-01-22 13:37:00,
2013-01-22 06:42:00,24.8,1.0,30.04,SSW,202,8.3,8.7,35,0.00,,CLR,0.00,VWS V14.01,2013-01-22 13:42:00,
2013-01-22 06:47:00,25.0,1.2,30.04,SE,141,8.1,8.7,35,0.00,,CLR,0.00,VWS V14.01,2013-01-22 13:47:00,
2013-01-22 06:52:00,27.9,3.2,30.04,South,174,6.3,9.2,34,0.00,,CLR,0.00,VWS V14.01,2013-01-22 13:52:00,
2013-01-22 06:57:00,28.0,2.7,30.04,South,172,5.4,9.2,33,0.00,,CLR,0.00,VWS V14.01,2013-01-22 13:57:00,
2013-01-22 07:03:00,27.9,2.5,30.04,South,188,6.3,6.3,33,0.00,,CLR,0.00,VWS V14.01,2013-01-22 14:03:00,
2013-01-22 07:08:00,27.0,1.7,30.04,South,188,5.4,8.1,33,0.00,,CLR,0.00,VWS V14.01,2013-01-22 14:08:00,
2013-01-22 07:13:00,27.9,2.5,30.04,SSW,197,8.1,8.1,33,0.00,,CLR,0.00,VWS V14.01,2013-01-22 14:13:00,
2013-01-22 07:18:00,28.6,2.5,30.07,South,186,7.2,8.3,32,0.00,,CLR,0.00,VWS V14.01,2013-01-22 14:18:00,
2013-01-22 07:23:00,27.1,1.9,30.07,SSW,212,8.1,8.3,33,0.00,,CLR,0.00,VWS V14.01,2013-01-22 14:23:00,
2013-01-22 07:28:00,25.5,1.1,30.07,SSW,207,4.9,8.7,34,0.00,,CLR,0.00,VWS V14.01,2013-01-22 14:28:00,
2013-01-22 07:33:00,24.1,-0.2,30.07,SW,229,8.3,9.6,34,0.00,,CLR,0.00,VWS V14.01,2013-01-22 14:33:00,
2013-01-22 07:38:00,25.3,0.9,30.07,WSW,243,8.3,9.6,34,0.00,,CLR,0.00,VWS V14.01,2013-01-22 14:38:00,
2013-01-22 07:43:00,24.3,0.6,30.07,WSW,245,7.6,9.6,35,0.00,,CLR,0.00,VWS V14.01,2013-01-22 14:43:00,
2013-01-22 07:48:00,23.4,-0.2,30.07,WSW,245,4.9,10.1,35,0.00,,CLR,0.00,VWS V14.01,2013-01-22 14:48:00,
2013-01-22 07:53:00,22.1,-1.4,30.07,SSW,212,5.8,10.1,35,0.00,,CLR,0.00,VWS V14.01,2013-01-22 14:53:00,
2013-01-22 07:58:00,21.7,-1.1,30.07,SW,233,5.4,10.1,36,0.00,,CLR,0.00,VWS V14.01,2013-01-22 14:58:00,
2013-01-22 08:03:00,23.2,-0.4,30.07,SW,222,6.7,7.6,35,0.00,,CLR,0.00,VWS V14.01,2013-01-22 15:03:00,
2013-01-22 08:08:00,24.8,1.0,30.07,SW,227,7.6,8.3,35,0.00,,CLR,0.00,VWS V14.01,2013-01-22 15:08:00,
2013-01-22 08:13:00,26.8,2.2,30.07,SW,230,6.3,8.3,34,0.00,,CLR,0.00,VWS V14.01,2013-01-22 15:13:00,
2013-01-22 08:18:00,27.1,1.9,30.07,SW,216,7.6,8.3,33,0.00,,CLR,0.00,VWS V14.01,2013-01-22 15:18:00,
2013-01-22 08:23:00,31.8,6.0,30.07,SSW,213,4.9,8.3,33,0.00,,CLR,0.00,VWS V14.01,2013-01-22 15:23:00,
2013-01-22 08:28:00,32.7,6.1,30.07,South,175,5.8,8.3,32,0.00,,CLR,0.00,VWS V14.01,2013-01-22 15:28:00,
2013-01-22 08:33:00,34.3,6.9,30.07,SSW,203,5.4,5.8,31,0.00,,CLR,0.00,VWS V14.01,2013-01-22 15:33:00,
2013-01-22 08:38:00,35.4,7.8,30.07,SSW,208,7.6,7.6,31,0.00,,CLR,0.00,VWS V14.01,2013-01-22 15:38:00,
2013-01-22 08:43:00,34.2,6.7,30.07,SW,214,5.8,8.1,31,0.00,,CLR,0.00,VWS V14.01,2013-01-22 15:43:00,
2013-01-22 08:48:00,33.1,5.8,30.07,SW,230,5.8,8.1,31,0.00,,CLR,0.00,VWS V14.01,2013-01-22 15:48:00,
2013-01-22 08:53:00,36.7,8.9,30.07,SW,230,3.1,8.1,31,0.00,,CLR,0.00,VWS V14.01,2013-01-22 15:53:00,
2013-01-22 08:58:00,35.2,7.7,30.07,SW,231,5.4,8.1,31,0.00,,CLR,0.00,VWS V14.01,2013-01-22 15:58:00,
2013-01-22 09:03:00,33.8,6.4,30.07,WSW,243,5.8,6.7,31,0.00,,CLR,0.00,VWS V14.01,2013-01-22 16:03:00,
2013-01-22 09:08:00,38.1,9.4,30.07,SSW,195,4.9,6.7,30,0.00,,CLR,0.00,VWS V14.01,2013-01-22 16:08:00,
2013-01-22 09:13:00,38.7,9.9,30.07,SW,219,5.4,6.7,30,0.00,,CLR,0.00,VWS V14.01,2013-01-22 16:13:00,
2013-01-22 09:18:00,37.6,9.0,30.07,SW,235,6.3,6.7,30,0.00,,CLR,0.00,VWS V14.01,2013-01-22 16:18:00,
2013-01-22 09:23:00,40.3,10.6,30.07,SW,215,4.0,6.7,29,0.00,,CLR,0.00,VWS V14.01,2013-01-22 16:23:00,
2013-01-22 09:28:00,41.5,10.9,30.07,South,183,4.0,6.7,28,0.00,,CLR,0.00,VWS V14.01,2013-01-22 16:28:00,
2013-01-22 09:33:00,39.0,9.5,30.07,SSE,153,5.4,5.4,29,0.00,,CLR,0.00,VWS V14.01,2013-01-22 16:33:00,
2013-01-22 09:38:00,40.6,10.9,30.07,South,184,5.4,5.4,29,0.00,,CLR,0.00,VWS V14.01,2013-01-22 16:38:00,
2013-01-22 09:43:00,42.1,11.3,30.07,South,173,4.9,5.4,28,0.00,,CLR,0.00,VWS V14.01,2013-01-22 16:43:00,
2013-01-22 09:48:00,44.1,13.1,30.07,SSW,200,2.2,5.8,28,0.00,,CLR,0.00,VWS V14.01,2013-01-22 16:48:00,
2013-01-22 09:53:00,40.6,10.9,30.07,SE,145,4.0,5.8,29,0.00,,CLR,0.00,VWS V14.01,2013-01-22 16:53:00,
2013-01-22 09:58:00,38.5,9.0,30.07,SSE,168,4.0,5.8,29,0.00,,CLR,0.00,VWS V14.01,2013-01-22 16:58:00,
2013-01-22 10:03:00,39.4,9.8,30.10,South,182,5.4,5.4,29,0.00,,CLR,0.00,VWS V14.01,2013-01-22 17:03:00,
2013-01-22 10:08:00,40.6,10.9,30.10,SW,224,3.6,6.3,29,0.00,,CLR,0.00,VWS V14.01,2013-01-22 17:08:00,
2013-01-22 10:13:00,41.7,11.8,30.10,SSW,202,4.0,6.3,29,0.00,,CLR,0.00,VWS V14.01,2013-01-22 17:13:00,
2013-01-22 10:18:00,43.5,12.6,30.10,SW,214,4.0,6.3,28,0.00,,CLR,0.00,VWS V14.01,2013-01-22 17:18:00,
2013-01-22 10:23:00,46.2,14.1,30.10,SW,215,2.7,6.3,27,0.00,,CLR,0.00,VWS V14.01,2013-01-22 17:23:00,
2013-01-22 10:28:00,50.4,16.8,30.10,SSW,211,3.6,6.3,26,0.00,,CLR,0.00,VWS V14.01,2013-01-22 17:28:00,
2013-01-22 10:33:00,51.6,10.7,30.10,SSW,195,0.0,4.0,19,0.00,,CLR,0.00,VWS V14.01,2013-01-22 17:33:00,
2013-01-22 10:38:00,49.6,9.1,30.10,SSE,162,4.5,4.5,19,0.00,,CLR,0.00,VWS V14.01,2013-01-22 17:38:00,
2013-01-22 10:43:00,49.6,9.1,30.10,South,169,2.7,4.9,19,0.00,,CLR,0.00,VWS V14.01,2013-01-22 17:43:00,
2013-01-22 10:48:00,49.5,8.9,30.10,SE,145,0.0,4.9,19,0.00,,CLR,0.00,VWS V14.01,2013-01-22 17:48:00,
2013-01-22 10:53:00,47.7,7.4,30.10,SSW,205,4.0,4.9,19,0.00,,CLR,0.00,VWS V14.01,2013-01-22 17:53:00,
2013-01-22 10:58:00,48.6,8.2,30.10,SSW,206,3.1,4.9,19,0.00,,CLR,0.00,VWS V14.01,2013-01-22 17:58:00,
2013-01-22 11:03:00,48.7,8.3,30.10,SSW,203,0.0,4.0,19,0.00,,CLR,0.00,VWS V14.01,2013-01-22 18:03:00,
2013-01-22 11:08:00,49.1,4.9,30.10,SSE,160,3.6,4.0,16,0.00,,CLR,0.00,VWS V14.01,2013-01-22 18:08:00,
2013-01-22 11:13:00,50.2,5.7,30.10,SSE,161,2.2,4.0,16,0.00,,CLR,0.00,VWS V14.01,2013-01-22 18:13:00,
2013-01-22 11:18:00,50.2,5.7,30.10,South,191,4.0,4.0,16,0.00,,CLR,0.00,VWS V14.01,2013-01-22 18:18:00,
2013-01-22 11:23:00,47.3,4.7,30.10,SSE,154,4.5,6.3,17,0.00,,CLR,0.00,VWS V14.01,2013-01-22 18:23:00,
2013-01-22 11:28:00,49.3,5.0,30.10,SE,143,4.9,6.3,16,0.00,,CLR,0.00,VWS V14.01,2013-01-22 18:28:00,
2013-01-22 11:33:00,46.6,4.1,30.10,SE,140,5.4,6.3,17,0.00,,CLR,0.00,VWS V14.01,2013-01-22 18:33:00,
2013-01-22 11:38:00,46.4,4.0,30.10,SSE,150,4.0,6.3,17,0.00,,CLR,0.00,VWS V14.01,2013-01-22 18:38:00,
2013-01-22 11:43:00,46.8,4.3,30.10,SE,130,0.0,6.3,17,0.00,,CLR,0.00,VWS V14.01,2013-01-22 18:43:00,
2013-01-22 11:48:00,47.8,5.2,30.10,SE,132,0.0,6.3,17,0.00,,CLR,0.00,VWS V14.01,2013-01-22 18:48:00,
2013-01-22 11:53:00,46.9,4.4,30.10,SE,125,4.0,6.3,17,0.00,,CLR,0.00,VWS V14.01,2013-01-22 18:53:00,
2013-01-22 11:58:00,48.6,4.4,30.10,SSE,151,0.0,6.3,16,0.00,,CLR,0.00,VWS V14.01,2013-01-22 18:58:00,
2013-01-22 12:03:00,48.7,4.6,30.10,ESE,117,3.1,3.6,16,0.00,,CLR,0.00,VWS V14.01,2013-01-22 19:03:00,
2013-01-22 12:08:00,48.9,4.7,30.10,East,93,0.0,3.6,16,0.00,,CLR,0.00,VWS V14.01,2013-01-22 19:08:00,
2013-01-22 12:13:00,48.0,7.7,30.10,WSW,243,2.7,5.4,19,0.00,,CLR,0.00,VWS V14.01,2013-01-22 19:13:00,
2013-01-22 12:18:00,46.9,6.8,30.10,West,262,2.7,5.4,19,0.00,,CLR,0.00,VWS V14.01,2013-01-22 19:18:00,
2013-01-22 12:23:00,46.2,7.4,30.10,West,262,0.0,5.4,20,0.00,,CLR,0.00,VWS V14.01,2013-01-22 19:23:00,
2013-01-22 12:28:00,46.0,3.7,30.10,West,262,0.0,5.4,17,0.00,,CLR,0.00,VWS V14.01,2013-01-22 19:28:00,
2013-01-22 12:33:00,45.7,6.9,30.10,West,262,0.0,0.0,20,0.00,,CLR,0.00,VWS V14.01,2013-01-22 19:33:00,
2013-01-22 12:38:00,45.5,3.2,30.10,WNW,288,0.0,0.0,17,0.00,,CLR,0.00,VWS V14.01,2013-01-22 19:38:00,
2013-01-22 12:43:00,46.0,3.7,30.10,WNW,288,0.0,0.0,17,0.00,,CLR,0.00,VWS V14.01,2013-01-22 19:43:00,
2013-01-22 12:48:00,46.9,4.4,30.07,SE,134,3.1,3.6,17,0.00,,CLR,0.00,VWS V14.01,2013-01-22 19:48:00,
2013-01-22 12:53:00,46.6,4.1,30.07,East,93,0.0,3.6,17,0.00,,CLR,0.00,VWS V14.01,2013-01-22 19:53:00,
2013-01-22 12:58:00,45.5,3.2,30.07,ENE,64,0.0,3.6,17,0.00,,CLR,0.00,VWS V14.01,2013-01-22 19:58:00,
2013-01-22 13:03:00,44.6,2.5,30.07,East,92,0.0,0.0,17,0.00,,CLR,0.00,VWS V14.01,2013-01-22 20:03:00,
2013-01-22 13:08:00,44.6,6.0,30.07,East,85,2.7,3.1,20,0.00,,CLR,0.00,VWS V14.01,2013-01-22 20:08:00,
2013-01-22 13:13:00,45.3,6.6,30.07,ESE,106,3.6,3.6,20,0.00,,CLR,0.00,VWS V14.01,2013-01-22 20:13:00,
2013-01-22 13:18:00,46.4,4.0,30.07,SSE,164,0.0,3.6,17,0.00,,CLR,0.00,VWS V14.01,2013-01-22 20:18:00,
2013-01-22 13:23:00,47.1,4.6,30.07,South,182,0.0,3.6,17,0.00,,CLR,0.00,VWS V14.01,2013-01-22 20:23:00,
2013-01-22 13:28:00,47.7,5.0,30.07,SE,146,0.0,4.9,17,0.00,,CLR,0.00,VWS V14.01,2013-01-22 20:28:00,
2013-01-22 13:33:00,47.7,5.0,30.07,ENE,59,2.7,3.1,17,0.00,,CLR,0.00,VWS V14.01,2013-01-22 20:33:00,
2013-01-22 13:38:00,47.8,5.2,30.07,ENE,59,0.0,3.1,17,0.00,,CLR,0.00,VWS V14.01,2013-01-22 20:38:00,
2013-01-22 13:43:00,47.5,4.8,30.07,ENE,61,2.7,3.1,17,0.00,,CLR,0.00,VWS V14.01,2013-01-22 20:43:00,
2013-01-22 13:48:00,47.3,4.7,30.07,ENE,68,2.7,4.9,17,0.00,,CLR,0.00,VWS V14.01,2013-01-22 20:48:00,
2013-01-22 13:53:00,46.6,4.1,30.07,ESE,102,0.0,4.9,17,0.00,,CLR,0.00,VWS V14.01,2013-01-22 20:53:00,
2013-01-22 13:58:00,44.2,5.7,30.07,ENE,61,5.4,5.8,20,0.00,,CLR,0.00,VWS V14.01,2013-01-22 20:58:00,
2013-01-22 14:03:00,42.8,9.4,30.10,ESE,105,4.9,4.9,25,0.00,,CLR,0.00,VWS V14.01,2013-01-22 21:03:00,
2013-01-22 14:08:00,43.3,12.4,30.10,ESE,106,0.0,5.4,28,0.00,,CLR,0.00,VWS V14.01,2013-01-22 21:08:00,
2013-01-22 14:13:00,43.3,9.9,30.10,ESE,120,2.7,5.4,25,0.00,,CLR,0.00,VWS V14.01,2013-01-22 21:13:00,
2013-01-22 14:18:00,43.5,8.2,30.10,SE,128,0.0,5.4,23,0.00,,CLR,0.00,VWS V14.01,2013-01-22 21:18:00,
2013-01-22 14:23:00,43.3,8.0,30.10,SE,128,0.0,5.4,23,0.00,,CLR,0.00,VWS V14.01,2013-01-22 21:23:00,
2013-01-22 14:28:00,42.3,12.3,30.10,SW,230,4.5,5.4,29,0.00,,CLR,0.00,VWS V14.01,2013-01-22 21:28:00,
2013-01-22 14:31:00,42.1,12.1,30.10,SW,224,3.1,3.1,29,0.00,,CLR,0.00,VWS V14.01,2013-01-22 21:31:00,
2013-01-22 14:37:00,41.2,11.4,30.10,West,265,4.0,4.0,29,0.00,,CLR,0.00,VWS V14.01,2013-01-22 21:37:00,
2013-01-22 14:42:00,39.4,10.5,30.10,WSW,253,4.9,6.3,30,0.00,,CLR,0.00,VWS V14.01,2013-01-22 21:42:00,
2013-01-22 14:47:00,38.1,9.4,30.07,SW,218,6.7,7.2,30,0.00,,CLR,0.00,VWS V14.01,2013-01-22 21:47:00,
2013-01-22 14:52:00,38.1,9.4,30.07,SW,227,4.9,7.2,30,0.00,,CLR,0.00,VWS V14.01,2013-01-22 21:52:00,
2013-01-22 14:57:00,38.1,9.4,30.07,WSW,254,4.0,7.2,30,0.00,,CLR,0.00,VWS V14.01,2013-01-22 21:57:00,
2013-01-22 15:02:00,37.6,8.2,30.10,SSW,203,4.0,4.0,29,0.00,,CLR,0.00,VWS V14.01,2013-01-22 22:02:00,
2013-01-22 15:07:00,40.6,3.8,30.10,South,186,5.4,5.4,21,0.00,,CLR,0.00,VWS V14.01,2013-01-22 22:07:00,
2013-01-22 15:12:00,40.3,10.6,30.10,SSE,156,3.1,5.4,29,0.00,,CLR,0.00,VWS V14.01,2013-01-22 22:12:00,
2013-01-22 15:17:00,39.9,9.5,30.10,South,180,3.6,5.4,28,0.00,,CLR,0.00,VWS V14.01,2013-01-22 22:17:00,
2013-01-22 15:22:00,38.8,9.3,30.10,SSW,209,3.1,5.4,29,0.00,,CLR,0.00,VWS V14.01,2013-01-22 22:22:00,
2013-01-22 15:27:00,38.1,8.7,30.10,SSW,209,0.0,5.4,29,0.00,,CLR,0.00,VWS V14.01,2013-01-22 22:27:00,
2013-01-22 15:32:00,37.4,8.1,30.10,WSW,251,2.7,5.8,29,0.00,,CLR,0.00,VWS V14.01,2013-01-22 22:32:00,
2013-01-22 15:37:00,37.4,8.1,30.10,SSW,199,0.0,5.8,29,0.00,,CLR,0.00,VWS V14.01,2013-01-22 22:37:00,
2013-01-22 15:42:00,38.3,8.8,30.10,SSW,199,0.0,5.8,29,0.00,,CLR,0.00,VWS V14.01,2013-01-22 22:42:00,
2013-01-22 15:47:00,39.4,9.8,30.10,SSW,212,3.6,5.8,29,0.00,,CLR,0.00,VWS V14.01,2013-01-22 22:47:00,
2013-01-22 15:52:00,39.2,9.6,30.10,WSW,239,2.7,5.8,29,0.00,,CLR,0.00,VWS V14.01,2013-01-22 22:52:00,
2013-01-22 15:57:00,38.7,9.2,30.10,West,262,4.9,5.8,29,0.00,,CLR,0.00,VWS V14.01,2013-01-22 22:57:00,
2013-01-22 16:02:00,37.0,8.5,30.10,WSW,256,2.2,3.6,30,0.00,,CLR,0.00,VWS V14.01,2013-01-22 23:02:00,
2013-01-22 16:07:00,37.4,8.1,30.10,SSW,198,3.6,3.6,29,0.00,,CLR,0.00,VWS V14.01,2013-01-22 23:07:00,
2013-01-22 16:12:00,38.1,8.7,30.10,SW,225,6.7,6.7,29,0.00,,CLR,0.00,VWS V14.01,2013-01-22 23:12:00,
2013-01-22 16:17:00,37.2,8.6,30.10,SW,230,2.2,7.2,30,0.00,,CLR,0.00,VWS V14.01,2013-01-22 23:17:00,
2013-01-22 16:22:00,36.7,8.2,30.10,SW,216,3.6,7.2,30,0.00,,CLR,0.00,VWS V14.01,2013-01-22 23:22:00,
2013-01-22 16:27:00,37.0,8.5,30.10,SSW,193,4.0,7.2,30,0.00,,CLR,0.00,VWS V14.01,2013-01-22 23:27:00,
2013-01-22 16:32:00,36.3,7.9,30.07,SW,220,4.0,4.9,30,0.00,,CLR,0.00,VWS V14.01,2013-01-22 23:32:00,
2013-01-22 16:37:00,35.8,7.4,30.07,SW,234,5.4,5.4,30,0.00,,CLR,0.00,VWS V14.01,2013-01-22 23:37:00,
2013-01-22 16:42:00,35.8,7.4,30.07,SSW,195,5.8,6.3,30,0.00,,CLR,0.00,VWS V14.01,2013-01-22 23:42:00,
2013-01-22 16:47:00,35.2,7.7,30.07,WSW,237,5.4,6.3,31,0.00,,CLR,0.00,VWS V14.01,2013-01-22 23:47:00,
2013-01-22 16:52:00,35.1,7.5,30.07,SW,221,4.9,6.3,31,0.00,,CLR,0.00,VWS V14.01,2013-01-22 23:52:00,
2013-01-22 16:57:00,33.8,6.4,30.07,SSW,206,5.8,6.3,31,0.00,,CLR,0.00,VWS V14.01,2013-01-22 23:57:00,
2013-01-22 17:02:00,34.5,7.0,30.07,SW,215,5.8,6.3,31,0.00,,CLR,0.00,VWS V14.01,2013-01-23 00:02:00,
2013-01-22 17:07:00,34.3,6.9,30.07,SW,224,7.2,7.2,31,0.00,,CLR,0.00,VWS V14.01,2013-01-23 00:07:00,
2013-01-22 17:12:00,33.8,7.1,30.07,SW,236,8.1,8.7,32,0.00,,CLR,0.00,VWS V14.01,2013-01-23 00:12:00,
2013-01-22 17:17:00,33.4,7.4,30.07,SW,222,6.3,8.7,33,0.00,,CLR,0.00,VWS V14.01,2013-01-23 00:17:00,
2013-01-22 17:22:00,32.9,7.6,30.07,WSW,238,6.3,8.7,34,0.00,,CLR,0.00,VWS V14.01,2013-01-23 00:22:00,
2013-01-22 17:27:00,32.7,7.5,30.07,SW,230,8.1,8.7,34,0.00,,CLR,0.00,VWS V14.01,2013-01-23 00:27:00,
2013-01-22 17:32:00,32.7,7.5,30.07,SW,232,6.3,8.3,34,0.00,,CLR,0.00,VWS V14.01,2013-01-23 00:32:00,
2013-01-22 17:37:00,32.4,7.1,30.07,WSW,238,8.1,8.3,34,0.00,,CLR,0.00,VWS V14.01,2013-01-23 00:37:00,
2013-01-22 17:42:00,32.4,7.1,30.07,WSW,238,8.3,10.1,34,0.00,,CLR,0.00,VWS V14.01,2013-01-23 00:42:00,
2013-01-22 17:47:00,32.2,7.0,30.07,WSW,246,7.6,10.1,34,0.00,,CLR,0.00,VWS V14.01,2013-01-23 00:47:00,
2013-01-22 17:52:00,32.2,7.0,30.07,SW,225,6.7,10.1,34,0.00,,CLR,0.00,VWS V14.01,2013-01-23 00:52:00,
2013-01-22 17:57:00,33.4,7.4,30.07,SSW,197,5.4,10.1,33,0.00,,CLR,0.00,VWS V14.01,2013-01-23 00:57:00,
2013-01-22 18:02:00,32.7,6.8,30.07,SW,224,7.6,8.3,33,0.00,,CLR,0.00,VWS V14.01,2013-01-23 01:02:00,
2013-01-22 18:07:00,32.2,7.6,30.07,WSW,252,5.8,8.3,35,0.00,,CLR,0.00,VWS V14.01,2013-01-23 01:07:00,
2013-01-22 18:12:00,30.9,6.5,30.07,SW,236,6.7,8.3,35,0.00,,CLR,0.00,VWS V14.01,2013-01-23 01:12:00,
2013-01-22 18:17:00,31.8,7.3,30.07,WSW,249,8.1,8.3,35,0.00,,CLR,0.00,VWS V14.01,2013-01-23 01:17:00,
2013-01-22 18:22:00,31.5,6.3,30.07,SW,232,8.1,8.3,34,0.00,,CLR,0.00,VWS V14.01,2013-01-23 01:22:00,
2013-01-22 18:27:00,32.4,7.1,30.07,SW,236,7.6,8.3,34,0.00,,CLR,0.00,VWS V14.01,2013-01-23 01:27:00,
2013-01-22 18:32:00,31.8,6.7,30.07,SW,231,6.3,7.6,34,0.00,,CLR,0.00,VWS V14.01,2013-01-23 01:32:00,
2013-01-22 18:37:00,31.8,7.3,30.07,WSW,240,7.6,7.6,35,0.00,,CLR,0.00,VWS V14.01,2013-01-23 01:37:00,
2013-01-22 18:42:00,31.6,6.5,30.07,SW,233,7.6,8.7,34,0.00,,CLR,0.00,VWS V14.01,2013-01-23 01:42:00,
2013-01-22 18:47:00,32.4,7.1,30.07,WSW,239,8.1,8.7,34,0.00,,CLR,0.00,VWS V14.01,2013-01-23 01:47:00,
2013-01-22 18:52:00,32.4,7.1,30.07,SW,234,5.4,8.7,34,0.00,,CLR,0.00,VWS V14.01,2013-01-23 01:52:00,
2013-01-22 18:57:00,32.5,7.3,30.07,SW,229,7.2,8.7,34,0.00,,CLR,0.00,VWS V14.01,2013-01-23 01:57:00,
2013-01-22 19:02:00,32.4,7.1,30.07,SW,225,6.3,7.6,34,0.00,,CLR,0.00,VWS V14.01,2013-01-23 02:02:00,
2013-01-22 19:07:00,32.2,7.0,30.07,WSW,241,7.2,7.6,34,0.00,,CLR,0.00,VWS V14.01,2013-01-23 02:07:00,
2013-01-22 19:12:00,32.5,7.3,30.07,SW,232,8.3,8.7,34,0.00,,CLR,0.00,VWS V14.01,2013-01-23 02:12:00,
2013-01-22 19:17:00,33.1,7.8,30.07,WSW,238,7.2,8.7,34,0.00,,CLR,0.00,VWS V14.01,2013-01-23 02:17:00,
2013-01-22 19:22:00,32.5,7.3,30.07,SW,235,6.3,9.2,34,0.00,,CLR,0.00,VWS V14.01,2013-01-23 02:22:00,
2013-01-22 19:28:00,33.1,7.8,30.07,WSW,249,6.3,9.2,34,0.00,,CLR,0.00,VWS V14.01,2013-01-23 02:28:00,
2013-01-22 19:33:00,32.9,7.6,30.07,WSW,243,8.3,8.3,34,0.00,,CLR,0.00,VWS V14.01,2013-01-23 02:33:00,
2013-01-22 19:38:00,32.4,7.1,30.07,WSW,237,5.8,8.3,34,0.00,,CLR,0.00,VWS V14.01,2013-01-23 02:38:00,
2013-01-22 19:43:00,32.7,7.5,30.07,WSW,246,6.7,8.3,34,0.00,,CLR,0.00,VWS V14.01,2013-01-23 02:43:00,
2013-01-22 19:48:00,33.8,7.8,30.07,SW,231,7.6,8.3,33,0.00,,CLR,0.00,VWS V14.01,2013-01-23 02:48:00,
2013-01-22 19:53:00,33.8,7.8,30.07,WSW,248,7.6,8.3,33,0.00,,CLR,0.00,VWS V14.01,2013-01-23 02:53:00,
2013-01-22 19:58:00,33.6,7.6,30.07,SW,236,7.2,8.3,33,0.00,,CLR,0.00,VWS V14.01,2013-01-23 02:58:00,
2013-01-22 20:03:00,33.6,7.6,30.07,SW,224,3.6,5.8,33,0.00,,CLR,0.00,VWS V14.01,2013-01-23 03:03:00,
2013-01-22 20:08:00,33.6,7.6,30.07,SSW,202,2.7,8.3,33,0.00,,CLR,0.00,VWS V14.01,2013-01-23 03:08:00,
2013-01-22 20:13:00,33.3,7.3,30.07,SSW,201,4.9,8.3,33,0.00,,CLR,0.00,VWS V14.01,2013-01-23 03:13:00,
2013-01-22 20:18:00,34.0,7.2,30.07,South,177,4.9,8.3,32,0.00,,CLR,0.00,VWS V14.01,2013-01-23 03:18:00,
2013-01-22 20:23:00,34.2,7.4,30.07,SSW,201,3.6,8.3,32,0.00,,CLR,0.00,VWS V14.01,2013-01-23 03:23:00,
2013-01-22 20:28:00,34.0,7.2,30.07,SSW,196,3.6,8.3,32,0.00,,CLR,0.00,VWS V14.01,2013-01-23 03:28:00,
2013-01-22 20:33:00,33.6,7.6,30.07,SW,228,5.8,5.8,33,0.00,,CLR,0.00,VWS V14.01,2013-01-23 03:33:00,
2013-01-22 20:38:00,32.9,7.0,30.07,SW,235,5.4,6.3,33,0.00,,CLR,0.00,VWS V14.01,2013-01-23 03:38:00,
2013-01-22 20:43:00,32.2,7.0,30.07,WSW,243,5.8,6.3,34,0.00,,CLR,0.00,VWS V14.01,2013-01-23 03:43:00,
2013-01-22 20:48:00,31.6,6.5,30.07,WSW,241,5.4,6.3,34,0.00,,CLR,0.00,VWS V14.01,2013-01-23 03:48:00,
2013-01-22 20:53:00,31.5,6.3,30.07,WSW,238,2.2,6.3,34,0.00,,CLR,0.00,VWS V14.01,2013-01-23 03:53:00,
2013-01-22 20:58:00,31.8,6.7,30.07,WSW,244,4.0,6.3,34,0.00,,CLR,0.00,VWS V14.01,2013-01-23 03:58:00,
2013-01-22 21:03:00,32.4,7.8,30.07,West,260,5.4,5.4,35,0.00,,CLR,0.00,VWS V14.01,2013-01-23 04:03:00,
2013-01-22 21:08:00,32.0,6.2,30.07,WSW,237,3.1,5.4,33,0.00,,CLR,0.00,VWS V14.01,2013-01-23 04:08:00,
2013-01-22 21:13:00,32.7,7.5,30.07,WSW,252,3.6,5.4,34,0.00,,CLR,0.00,VWS V14.01,2013-01-23 04:13:00,
2013-01-22 21:18:00,32.9,7.6,30.07,WSW,242,5.4,5.4,34,0.00,,CLR,0.00,VWS V14.01,2013-01-23 04:18:00,
2013-01-22 21:23:00,32.7,6.8,30.07,SW,223,3.1,5.8,33,0.00,,CLR,0.00,VWS V14.01,2013-01-23 04:23:00,
2013-01-22 21:28:00,33.8,8.4,30.07,WSW,254,4.9,6.3,34,0.00,,CLR,0.00,VWS V14.01,2013-01-23 04:28:00,
2013-01-22 21:33:00,32.7,7.5,30.07,SW,230,5.4,5.4,34,0.00,,CLR,0.00,VWS V14.01,2013-01-23 04:33:00,
2013-01-22 21:38:00,32.5,7.9,30.07,WSW,246,4.0,5.8,35,0.00,,CLR,0.00,VWS V14.01,2013-01-23 04:38:00,
2013-01-22 21:43:00,32.2,7.6,30.07,SW,233,4.9,5.8,35,0.00,,CLR,0.00,VWS V14.01,2013-01-23 04:43:00,
2013-01-22 21:48:00,32.5,7.3,30.07,SW,225,4.5,6.7,34,0.00,,CLR,0.00,VWS V14.01,2013-01-23 04:48:00,
2013-01-22 21:53:00,32.5,7.9,30.07,WSW,248,5.4,6.7,35,0.00,,CLR,0.00,VWS V14.01,2013-01-23 04:53:00,
2013-01-22 21:57:00,32.5,7.9,30.07,SW,233,5.8,6.7,35,0.00,,CLR,0.00,VWS V14.01,2013-01-23 04:57:00,
2013-01-22 22:00:00,33.3,7.3,30.07,SW,230,7.6,7.6,33,0.00,,CLR,0.00,VWS V14.01,2013-01-23 05:00:00,
2013-01-22 22:03:00,34.5,7.7,30.07,SW,233,4.9,7.2,32,0.00,,CLR,0.00,VWS V14.01,2013-01-23 05:03:00,
2013-01-22 22:08:00,35.4,8.5,30.07,WSW,241,5.4,7.2,32,0.00,,CLR,0.00,VWS V14.01,2013-01-23 05:08:00,
2013-01-22 22:13:00,35.8,8.8,30.07,SW,224,6.7,7.6,32,0.00,,CLR,0.00,VWS V14.01,2013-01-23 05:13:00,
2013-01-22 22:18:00,36.7,9.6,30.07,SW,229,6.3,7.6,32,0.00,,CLR,0.00,VWS V14.01,2013-01-23 05:18:00,
2013-01-22 22:23:00,37.0,9.9,30.07,WSW,243,6.3,8.3,32,0.00,,CLR,0.00,VWS V14.01,2013-01-23 05:23:00,
2013-01-22 22:28:00,35.1,9.5,30.07,WSW,249,5.8,8.3,34,0.00,,CLR,0.00,VWS V14.01,2013-01-23 05:28:00,
2013-01-22 22:33:00,34.3,8.9,30.07,SW,229,5.8,6.3,34,0.00,,CLR,0.00,VWS V14.01,2013-01-23 05:33:00,
2013-01-22 22:38:00,35.8,8.8,30.07,South,170,6.3,6.7,32,0.00,,CLR,0.00,VWS V14.01,2013-01-23 05:38:00,
2013-01-22 22:43:00,35.8,8.8,30.07,SW,220,5.4,6.7,32,0.00,,CLR,0.00,VWS V14.01,2013-01-23 05:43:00,
2013-01-22 22:48:00,35.2,9.0,30.07,SW,224,5.4,6.7,33,0.00,,CLR,0.00,VWS V14.01,2013-01-23 05:48:00,
2013-01-22 22:53:00,34.5,9.1,30.07,SW,236,6.3,7.6,34,0.00,,CLR,0.00,VWS V14.01,2013-01-23 05:53:00,
2013-01-22 22:58:00,34.3,8.2,30.07,SW,230,4.0,7.6,33,0.00,,CLR,0.00,VWS V14.01,2013-01-23 05:58:00,
2013-01-22 23:03:00,34.3,8.9,30.07,SW,215,8.1,8.1,34,0.00,,CLR,0.00,VWS V14.01,2013-01-23 06:03:00,
2013-01-22 23:08:00,35.4,9.2,30.07,SW,222,2.2,8.1,33,0.00,,CLR,0.00,VWS V14.01,2013-01-23 06:08:00,
2013-01-22 23:13:00,36.5,9.5,30.07,South,174,3.6,8.1,32,0.00,,CLR,0.00,VWS V14.01,2013-01-23 06:13:00,
2013-01-22 23:18:00,36.3,9.3,30.07,SE,139,5.8,8.1,32,0.00,,CLR,0.00,VWS V14.01,2013-01-23 06:18:00,
2013-01-22 23:23:00,37.0,9.9,30.07,South,176,5.4,8.1,32,0.00,,CLR,0.00,VWS V14.01,2013-01-23 06:23:00,
2013-01-22 23:28:00,36.7,9.6,30.07,South,191,3.6,8.1,32,0.00,,CLR,0.00,VWS V14.01,2013-01-23 06:28:00,
2013-01-22 23:33:00,34.7,8.6,30.07,WSW,242,6.3,6.3,33,0.00,,CLR,0.00,VWS V14.01,2013-01-23 06:33:00,
2013-01-22 23:38:00,34.5,7.7,30.07,SSW,202,2.7,6.3,32,0.00,,CLR,0.00,VWS V14.01,2013-01-23 06:38:00,
2013-01-22 23:43:00,34.7,7.9,30.07,SW,220,5.4,7.6,32,0.00,,CLR,0.00,VWS V14.01,2013-01-23 06:43:00,
2013-01-22 23:48:00,35.8,8.8,30.07,South,185,5.4,7.6,32,0.00,,CLR,0.00,VWS V14.01,2013-01-23 06:48:00,
2013-01-22 23:59:00,35.1,8.9,30.07,SSW,209,4.9,7.6,33,0.00,,CLR,0.00,VWS V14.01,2013-01-23 06:59:00,